createdAt,value
2018-04-29T00:02:16.721Z,15.30
2018-04-29T00:04:44.302Z,15.45
2018-04-29T00:07:11.846Z,16.40
2018-04-29T00:09:40.179Z,15.95
2018-04-29T00:12:07.736Z,16.92
2018-04-29T00:14:35.278Z,15.45
2018-04-29T00:17:02.825Z,14.57
2018-04-29T00:19:30.360Z,11.75
2018-04-29T00:21:57.917Z,14.13
2018-04-29T00:24:25.469Z,12.43
2018-04-29T00:26:53.015Z,10.57
2018-04-29T00:29:20.582Z,10.90
2018-04-29T00:31:48.132Z,11.43
2018-04-29T00:34:15.699Z,13.00
2018-04-29T00:36:43.262Z,10.80
2018-04-29T00:39:10.826Z,10.55
2018-04-29T00:41:38.370Z,10.43
2018-04-29T00:44:05.950Z,10.82
2018-04-29T00:46:33.501Z,10.90
2018-04-29T00:49:01.043Z,12.13
2018-04-29T00:51:41.258Z,11.75
2018-04-29T00:54:08.866Z,13.43
2018-04-29T00:56:37.175Z,11.95
2018-04-29T00:59:04.768Z,13.10
2018-04-29T01:01:32.336Z,12.32
2018-04-29T01:03:59.908Z,15.02
2018-04-29T01:06:27.473Z,13.32
2018-04-29T01:08:55.024Z,12.85
2018-04-29T01:11:22.590Z,16.42
2018-04-29T01:13:50.231Z,16.85
2018-04-29T01:16:17.722Z,15.80
2018-04-29T01:18:45.282Z,23.73
2018-04-29T01:21:12.896Z,23.33
2018-04-29T01:23:40.441Z,20.45
2018-04-29T01:26:08.007Z,21.20
2018-04-29T01:28:36.315Z,22.55
2018-04-29T01:31:03.854Z,23.27
2018-04-29T01:33:32.154Z,26.00
2018-04-29T01:35:59.705Z,25.95
2018-04-29T01:38:28.015Z,23.65
2018-04-29T01:40:55.580Z,26.25
2018-04-29T01:43:23.126Z,24.52
2018-04-29T01:45:50.706Z,25.88
2018-04-29T01:48:18.247Z,25.35
2018-04-29T01:50:46.574Z,23.38
2018-04-29T01:53:14.134Z,23.52
2018-04-29T01:55:41.703Z,22.67
2018-04-29T01:58:09.281Z,22.13
2018-04-29T02:00:36.817Z,22.67
2018-04-29T02:03:04.382Z,21.75
2018-04-29T02:05:31.945Z,21.30
2018-04-29T02:07:59.510Z,22.02
2018-04-29T02:10:27.081Z,19.35
2018-04-29T02:12:54.642Z,19.25
2018-04-29T02:15:22.187Z,20.40
2018-04-29T02:17:49.726Z,22.20
2018-04-29T02:20:18.033Z,19.80
2018-04-29T02:22:45.556Z,22.75
2018-04-29T02:25:13.081Z,22.98
2018-04-29T02:27:40.614Z,23.42
2018-04-29T02:30:08.146Z,23.98
2018-04-29T02:32:35.706Z,25.70
2018-04-29T02:35:03.263Z,26.75
2018-04-29T02:37:30.795Z,25.98
2018-04-29T02:39:58.327Z,27.15
2018-04-29T02:42:26.618Z,34.72
2018-04-29T02:44:54.179Z,31.40
2018-04-29T02:47:21.763Z,39.97
2018-04-29T02:49:49.330Z,33.85
2018-04-29T02:52:16.902Z,29.05
2018-04-29T02:54:44.442Z,35.55
2018-04-29T02:57:12.028Z,43.08
2018-04-29T02:59:39.571Z,72.57
2018-04-29T03:02:07.093Z,59.55
2018-04-29T03:04:34.635Z,59.00
2018-04-29T03:07:02.156Z,54.50
2018-04-29T03:09:29.721Z,55.25
2018-04-29T03:11:57.282Z,53.22
2018-04-29T03:14:24.873Z,49.33
2018-04-29T03:16:52.419Z,48.05
2018-04-29T03:19:19.948Z,61.80
2018-04-29T03:21:47.514Z,56.37
2018-04-29T03:24:15.818Z,53.13
2018-04-29T03:26:43.382Z,71.15
2018-04-29T03:29:10.924Z,70.97
2018-04-29T03:31:38.482Z,56.25
2018-04-29T03:34:06.025Z,46.37
2018-04-29T03:36:33.559Z,48.03
2018-04-29T03:39:01.118Z,49.55
2018-04-29T03:41:28.654Z,52.85
2018-04-29T03:43:56.964Z,46.55
2018-04-29T03:46:24.534Z,52.75
2018-04-29T03:48:52.089Z,59.80
2018-04-29T03:51:19.655Z,75.57
2018-04-29T03:53:47.276Z,75.97
2018-04-29T03:56:14.838Z,69.50
2018-04-29T03:58:54.299Z,66.70
2018-04-29T04:01:34.553Z,72.20
2018-04-29T04:04:02.962Z,72.78
2018-04-29T04:06:30.503Z,78.57
2018-04-29T04:08:58.811Z,73.20
2018-04-29T04:11:26.337Z,78.40
2018-04-29T04:13:54.652Z,73.87
2018-04-29T04:16:22.222Z,65.97
2018-04-29T04:18:49.762Z,59.47
2018-04-29T04:21:17.329Z,62.90
2018-04-29T04:23:44.927Z,57.47
2018-04-29T04:26:12.468Z,56.17
2018-04-29T04:28:40.030Z,57.10
2018-04-29T04:31:07.570Z,61.35
2018-04-29T04:33:35.889Z,58.87
2018-04-29T04:36:03.435Z,58.53
2018-04-29T04:38:30.965Z,57.03
2018-04-29T04:40:58.526Z,57.22
2018-04-29T04:43:26.821Z,57.22
2018-04-29T04:45:55.195Z,55.22
2018-04-29T04:48:23.513Z,54.50
2018-04-29T04:50:51.056Z,54.28
2018-04-29T04:53:19.385Z,54.78
2018-04-29T04:55:46.937Z,50.17
2018-04-29T04:58:14.540Z,46.13
2018-04-29T05:00:42.072Z,47.45
2018-04-29T05:03:09.631Z,37.53
2018-04-29T05:05:37.160Z,32.50
2018-04-29T05:08:05.480Z,32.03
2018-04-29T05:10:33.023Z,32.03
2018-04-29T05:13:00.588Z,31.17
2018-04-29T05:15:28.125Z,32.28
2018-04-29T05:17:56.431Z,31.87
2018-04-29T05:20:23.995Z,32.60
2018-04-29T05:22:51.539Z,32.80
2018-04-29T05:25:19.876Z,32.58
2018-04-29T05:27:47.511Z,33.25
2018-04-29T05:30:15.056Z,32.95
2018-04-29T05:32:42.614Z,29.70
2018-04-29T05:35:10.943Z,29.30
2018-04-29T05:37:38.482Z,28.90
2018-04-29T05:40:06.043Z,28.92
2018-04-29T05:42:33.834Z,28.48
2018-04-29T05:45:01.380Z,25.70
2018-04-29T05:47:28.920Z,24.25
2018-04-29T05:49:56.563Z,24.05
2018-04-29T05:52:24.050Z,23.27
2018-04-29T05:54:52.354Z,24.63
2018-04-29T05:57:19.895Z,25.08
2018-04-29T05:59:48.246Z,14.35
2018-04-29T06:02:15.790Z,11.43
2018-04-29T06:04:43.329Z,13.02
2018-04-29T06:07:10.877Z,11.50
2018-04-29T06:09:38.424Z,11.93
2018-04-29T06:12:07.683Z,10.55
2018-04-29T06:14:35.254Z,11.23
2018-04-29T06:17:04.173Z,11.27
2018-04-29T06:19:34.006Z,10.15
2018-04-29T06:22:02.922Z,9.55
2018-04-29T06:24:31.809Z,8.80
2018-04-29T06:27:00.704Z,8.35
2018-04-29T06:29:29.620Z,8.40
2018-04-29T06:31:58.582Z,8.88
2018-04-29T06:34:27.427Z,8.73
2018-04-29T06:36:56.327Z,7.57
2018-04-29T06:39:25.221Z,7.72
2018-04-29T06:41:54.125Z,7.90
2018-04-29T06:44:23.033Z,7.22
2018-04-29T06:46:52.022Z,6.22
2018-04-29T06:49:20.859Z,6.53
2018-04-29T06:51:49.797Z,6.70
2018-04-29T06:54:17.327Z,6.70
2018-04-29T06:56:44.885Z,6.53
2018-04-29T06:59:12.459Z,6.20
2018-04-29T07:01:40.026Z,7.68
2018-04-29T07:04:08.958Z,7.00
2018-04-29T07:06:37.859Z,6.28
2018-04-29T07:09:06.769Z,6.85
2018-04-29T07:11:35.657Z,5.12
2018-04-29T07:14:04.565Z,5.97
2018-04-29T07:16:33.499Z,5.97
2018-04-29T07:19:02.390Z,6.55
2018-04-29T07:21:31.276Z,6.25
2018-04-29T07:24:00.185Z,5.95
2018-04-29T07:26:29.071Z,7.07
2018-04-29T07:28:57.973Z,7.05
2018-04-29T07:31:26.888Z,6.57
2018-04-29T07:33:55.801Z,6.25
2018-04-29T07:36:24.694Z,6.22
2018-04-29T07:38:53.634Z,6.75
2018-04-29T07:41:22.543Z,6.75
2018-04-29T07:43:51.452Z,6.50
2018-04-29T07:46:20.386Z,6.43
2018-04-29T07:48:49.306Z,6.60
2018-04-29T07:51:18.185Z,6.20
2018-04-29T07:53:47.122Z,6.07
2018-04-29T07:56:16.036Z,5.85
2018-04-29T07:58:44.930Z,7.35
2018-04-29T08:01:13.832Z,6.60
2018-04-29T08:03:42.782Z,7.18
2018-04-29T08:06:11.742Z,6.40
2018-04-29T08:08:40.638Z,7.53
2018-04-29T08:11:09.527Z,6.28
2018-04-29T08:13:38.439Z,6.00
2018-04-29T08:16:07.343Z,6.80
2018-04-29T08:18:36.226Z,6.05
2018-04-29T08:21:05.197Z,6.85
2018-04-29T08:23:34.119Z,7.12
2018-04-29T08:26:02.992Z,6.53
2018-04-29T08:28:31.881Z,6.70
2018-04-29T08:31:00.773Z,7.05
2018-04-29T08:33:29.690Z,7.37
2018-04-29T08:35:58.587Z,7.68
2018-04-29T08:38:27.478Z,5.93
2018-04-29T08:40:56.387Z,6.75
2018-04-29T08:43:25.289Z,7.03
2018-04-29T08:45:54.197Z,7.05
2018-04-29T08:48:23.094Z,7.43
2018-04-29T08:50:52.043Z,7.00
2018-04-29T08:53:20.962Z,7.22
2018-04-29T08:55:49.877Z,7.30
2018-04-29T08:58:18.780Z,6.90
2018-04-29T09:00:47.660Z,7.50
2018-04-29T09:03:16.536Z,6.65
2018-04-29T09:05:45.439Z,7.93
2018-04-29T09:08:14.397Z,6.40
2018-04-29T09:10:43.310Z,7.65
2018-04-29T09:13:12.195Z,7.40
2018-04-29T09:15:41.096Z,9.25
2018-04-29T09:18:09.999Z,9.55
2018-04-29T09:20:38.922Z,8.65
2018-04-29T09:23:07.842Z,8.60
2018-04-29T09:25:36.758Z,8.65
2018-04-29T09:28:05.639Z,9.10
2018-04-29T09:30:34.543Z,9.05
2018-04-29T09:33:03.474Z,8.18
2018-04-29T09:35:32.357Z,10.00
2018-04-29T09:38:01.267Z,8.47
2018-04-29T09:40:30.173Z,9.70
2018-04-29T09:42:59.071Z,7.97
2018-04-29T09:45:27.966Z,9.80
2018-04-29T09:47:56.877Z,8.53
2018-04-29T09:50:25.795Z,8.90
2018-04-29T09:52:54.694Z,9.23
2018-04-29T09:55:23.661Z,7.78
2018-04-29T09:57:52.530Z,8.73
2018-04-29T10:00:26.498Z,7.78
2018-04-29T10:03:11.233Z,6.85
2018-04-29T10:05:40.229Z,7.37
2018-04-29T10:08:09.135Z,7.67
2018-04-29T10:10:38.022Z,8.60
2018-04-29T10:13:06.934Z,8.77
2018-04-29T10:15:36.067Z,9.00
2018-04-29T10:18:04.986Z,8.27
2018-04-29T10:20:33.865Z,9.00
2018-04-29T10:23:02.750Z,8.40
2018-04-29T10:25:31.694Z,9.10
2018-04-29T10:28:00.601Z,8.10
2018-04-29T10:30:29.494Z,10.30
2018-04-29T10:32:58.509Z,8.10
2018-04-29T10:35:27.324Z,7.50
2018-04-29T10:37:56.226Z,10.20
2018-04-29T10:40:25.142Z,8.50
2018-04-29T10:42:54.088Z,9.13
2018-04-29T10:45:23.029Z,8.37
2018-04-29T10:47:51.908Z,9.70
2018-04-29T10:50:20.835Z,8.90
2018-04-29T10:52:49.739Z,9.33
2018-04-29T10:55:18.658Z,8.87
2018-04-29T10:57:47.570Z,9.00
2018-04-29T11:00:16.789Z,8.93
2018-04-29T11:02:45.774Z,9.00
2018-04-29T11:05:14.670Z,8.30
2018-04-29T11:07:44.410Z,8.43
2018-04-29T11:10:13.337Z,9.50
2018-04-29T11:12:42.222Z,9.00
2018-04-29T11:15:11.109Z,9.43
2018-04-29T11:17:40.080Z,8.20
2018-04-29T11:20:08.966Z,8.53
2018-04-29T11:22:37.860Z,7.83
2018-04-29T11:25:06.751Z,8.57
2018-04-29T11:27:35.660Z,8.90
2018-04-29T11:30:04.560Z,8.23
2018-04-29T11:32:33.486Z,8.67
2018-04-29T11:35:02.396Z,7.80
2018-04-29T11:37:31.378Z,7.90
2018-04-29T11:40:00.249Z,7.87
2018-04-29T11:42:29.157Z,9.17
2018-04-29T11:44:58.085Z,8.27
2018-04-29T11:47:26.993Z,8.57
2018-04-29T11:49:55.878Z,8.13
2018-04-29T11:52:24.768Z,8.60
2018-04-29T11:54:53.668Z,8.87
2018-04-29T11:57:22.633Z,9.77
2018-04-29T11:59:51.542Z,8.90
2018-04-29T12:02:20.444Z,9.20
2018-04-29T12:04:49.340Z,9.40
2018-04-29T12:07:18.286Z,10.03
2018-04-29T12:09:47.209Z,9.47
2018-04-29T12:12:16.082Z,8.13
2018-04-29T12:14:44.966Z,9.60
2018-04-29T12:17:13.862Z,9.10
2018-04-29T12:19:42.753Z,9.23
2018-04-29T12:22:11.682Z,7.80
2018-04-29T12:24:40.583Z,9.70
2018-04-29T12:27:09.479Z,9.63
2018-04-29T12:29:38.389Z,9.57
2018-04-29T12:32:07.278Z,8.80
2018-04-29T12:34:36.161Z,9.80
2018-04-29T12:37:05.060Z,9.50
2018-04-29T12:39:33.959Z,9.70
2018-04-29T12:42:02.869Z,10.13
2018-04-29T12:44:31.824Z,9.60
2018-04-29T12:47:00.741Z,10.10
2018-04-29T12:49:29.657Z,9.50
2018-04-29T12:51:58.541Z,9.80
2018-04-29T12:54:27.431Z,9.10
2018-04-29T12:56:56.322Z,10.70
2018-04-29T12:59:25.195Z,8.83
2018-04-29T13:01:54.145Z,9.67
2018-04-29T13:04:23.034Z,9.90
2018-04-29T13:06:51.923Z,10.20
2018-04-29T13:09:20.841Z,10.27
2018-04-29T13:11:49.794Z,9.13
2018-04-29T13:14:18.705Z,8.67
2018-04-29T13:16:47.625Z,9.90
2018-04-29T13:19:16.535Z,9.50
2018-04-29T13:21:45.423Z,8.60
2018-04-29T13:24:14.356Z,9.10
2018-04-29T13:26:43.242Z,8.80
2018-04-29T13:29:12.152Z,7.53
2018-04-29T13:31:41.045Z,7.83
2018-04-29T13:34:09.937Z,9.43
2018-04-29T13:36:38.831Z,8.97
2018-04-29T13:39:07.729Z,8.67
2018-04-29T13:41:36.608Z,8.50
2018-04-29T13:44:05.553Z,9.90
2018-04-29T13:46:34.456Z,9.03
2018-04-29T13:49:03.398Z,8.53
2018-04-29T13:51:32.364Z,8.33
2018-04-29T13:54:01.282Z,8.07
2018-04-29T13:56:30.314Z,8.43
2018-04-29T13:58:59.150Z,8.30
2018-04-29T14:01:28.040Z,8.43
2018-04-29T14:03:56.944Z,9.57
2018-04-29T14:06:25.866Z,8.57
2018-04-29T14:08:54.763Z,7.70
2018-04-29T14:11:23.674Z,7.80
2018-04-29T14:13:52.573Z,8.40
2018-04-29T14:16:21.502Z,7.50
2018-04-29T14:18:50.390Z,7.87
2018-04-29T14:21:19.301Z,8.13
2018-04-29T14:23:48.185Z,7.90
2018-04-29T14:26:17.078Z,7.90
2018-04-29T14:28:45.965Z,7.80
2018-04-29T14:31:14.907Z,7.80
2018-04-29T14:33:43.810Z,8.03
2018-04-29T14:36:12.703Z,7.47
2018-04-29T14:38:41.580Z,8.17
2018-04-29T14:41:10.476Z,8.27
2018-04-29T14:43:39.425Z,8.43
2018-04-29T14:46:08.319Z,7.70
2018-04-29T14:48:37.224Z,7.23
2018-04-29T14:51:06.133Z,7.60
2018-04-29T14:53:35.045Z,6.90
2018-04-29T14:56:04.007Z,8.63
2018-04-29T14:58:32.878Z,7.70
2018-04-29T15:01:01.753Z,8.10
2018-04-29T15:03:30.655Z,7.83
2018-04-29T15:05:59.540Z,8.67
2018-04-29T15:08:28.449Z,8.60
2018-04-29T15:10:57.341Z,8.90
2018-04-29T15:13:26.293Z,8.87
2018-04-29T15:15:55.210Z,8.30
2018-04-29T15:18:29.952Z,8.40
2018-04-29T15:20:58.856Z,8.10
2018-04-29T15:23:27.732Z,8.53
2018-04-29T15:25:56.619Z,8.50
2018-04-29T15:28:25.513Z,7.87
2018-04-29T15:30:54.443Z,8.60
2018-04-29T15:33:23.349Z,8.30
2018-04-29T15:35:52.292Z,8.63
2018-04-29T15:38:21.182Z,8.20
2018-04-29T15:40:50.086Z,7.83
2018-04-29T15:43:18.988Z,8.37
2018-04-29T15:45:47.937Z,9.00
2018-04-29T15:48:16.840Z,8.33
2018-04-29T15:50:45.755Z,8.30
2018-04-29T15:53:14.663Z,8.63
2018-04-29T15:55:43.574Z,8.53
2018-04-29T15:58:12.492Z,8.83
2018-04-29T16:00:41.378Z,9.10
2018-04-29T16:03:10.266Z,8.43
2018-04-29T16:05:39.173Z,8.43
2018-04-29T16:08:08.065Z,8.50
2018-04-29T16:10:36.974Z,9.00
2018-04-29T16:13:05.852Z,9.07
2018-04-29T16:15:34.753Z,8.93
2018-04-29T16:18:03.654Z,9.40
2018-04-29T16:20:32.547Z,8.77
2018-04-29T16:23:01.433Z,8.63
2018-04-29T16:25:30.322Z,10.70
2018-04-29T16:27:59.226Z,9.23
2018-04-29T16:30:28.138Z,9.13
2018-04-29T16:32:57.029Z,8.57
2018-04-29T16:35:25.914Z,8.80
2018-04-29T16:37:54.842Z,9.00
2018-04-29T16:40:23.728Z,9.53
2018-04-29T16:42:52.616Z,9.00
2018-04-29T16:45:21.505Z,8.80
2018-04-29T16:47:50.402Z,9.10
2018-04-29T16:50:19.318Z,9.30
2018-04-29T16:52:48.205Z,8.73
2018-04-29T16:55:17.108Z,9.13
2018-04-29T16:57:46.001Z,10.37
2018-04-29T17:00:14.885Z,9.13
2018-04-29T17:02:43.797Z,8.53
2018-04-29T17:05:12.684Z,10.30
2018-04-29T17:07:41.556Z,9.40
2018-04-29T17:10:10.482Z,9.67
2018-04-29T17:12:39.366Z,9.70
2018-04-29T17:15:08.269Z,9.25
2018-04-29T17:17:37.182Z,9.73
2018-04-29T17:20:06.093Z,9.57
2018-04-29T17:22:34.976Z,9.73
2018-04-29T17:25:03.885Z,10.10
2018-04-29T17:27:32.782Z,9.73
2018-04-29T17:30:01.689Z,8.20
2018-04-29T17:32:30.581Z,10.40
2018-04-29T17:34:59.461Z,9.40
2018-04-29T17:37:28.339Z,10.50
2018-04-29T17:39:57.226Z,9.80
2018-04-29T17:42:26.109Z,11.60
2018-04-29T17:44:55.022Z,11.07
2018-04-29T17:47:23.953Z,9.17
2018-04-29T17:49:52.934Z,10.27
2018-04-29T17:52:21.830Z,9.30
2018-04-29T17:54:50.731Z,9.10
2018-04-29T17:57:18.297Z,11.40
2018-04-29T17:59:45.870Z,11.20
2018-04-29T18:02:13.481Z,10.43
2018-04-29T18:04:41.782Z,10.27
2018-04-29T18:07:09.396Z,11.10
2018-04-29T18:09:36.919Z,10.60
2018-04-29T18:12:04.477Z,11.90
2018-04-29T18:14:32.033Z,10.70
2018-04-29T18:16:59.603Z,11.97
2018-04-29T18:19:27.137Z,11.43
2018-04-29T18:21:55.549Z,14.40
2018-04-29T18:24:23.143Z,15.23
2018-04-29T18:26:50.680Z,14.60
2018-04-29T18:29:18.222Z,14.90
2018-04-29T18:31:45.833Z,14.30
2018-04-29T18:34:13.479Z,15.97
2018-04-29T18:36:41.098Z,13.33
2018-04-29T18:39:09.455Z,13.70
2018-04-29T18:41:37.846Z,15.17
2018-04-29T18:44:05.422Z,13.68
2018-04-29T18:46:33.815Z,12.67
2018-04-29T18:49:02.147Z,11.20
2018-04-29T18:51:29.867Z,11.95
2018-04-29T18:53:57.379Z,11.10
2018-04-29T18:56:24.978Z,12.15
2018-04-29T18:58:53.327Z,11.48
2018-04-29T19:01:21.667Z,12.30
2018-04-29T19:03:50.024Z,12.18
2018-04-29T19:06:18.376Z,12.47
2018-04-29T19:08:46.034Z,12.77
2018-04-29T19:11:13.622Z,11.77
2018-04-29T19:13:41.221Z,11.95
2018-04-29T19:16:08.805Z,14.15
2018-04-29T19:18:36.358Z,13.32
2018-04-29T19:21:03.950Z,12.02
2018-04-29T19:23:31.575Z,13.23
2018-04-29T19:25:59.889Z,13.68
2018-04-29T19:28:27.488Z,13.27
2018-04-29T19:30:55.054Z,13.98
2018-04-29T19:33:22.630Z,12.00
2018-04-29T19:35:50.179Z,13.45
2018-04-29T19:38:18.084Z,13.25
2018-04-29T19:40:46.423Z,13.40
2018-04-29T19:43:14.482Z,12.48
2018-04-29T19:45:42.072Z,12.98
2018-04-29T19:48:10.444Z,11.63
2018-04-29T19:50:38.014Z,11.98
2018-04-29T19:53:05.633Z,13.98
2018-04-29T19:55:33.176Z,14.85
2018-04-29T19:58:00.738Z,14.57
2018-04-29T20:00:29.069Z,14.15
2018-04-29T20:02:56.659Z,13.43
2018-04-29T20:05:24.225Z,13.13
2018-04-29T20:07:51.779Z,14.85
2018-04-29T20:10:19.346Z,14.32
2018-04-29T20:12:46.927Z,13.55
2018-04-29T20:15:14.514Z,14.55
2018-04-29T20:17:42.848Z,14.80
2018-04-29T20:20:10.381Z,14.98
2018-04-29T20:22:37.948Z,13.75
2018-04-29T20:25:05.531Z,15.40
2018-04-29T20:27:33.090Z,13.90
2018-04-29T20:30:00.653Z,13.32
2018-04-29T20:32:37.057Z,12.80
2018-04-29T20:35:04.623Z,13.50
2018-04-29T20:37:32.171Z,15.63
2018-04-29T20:39:59.784Z,14.45
2018-04-29T20:42:28.086Z,14.02
2018-04-29T20:44:55.625Z,14.15
2018-04-29T20:47:23.935Z,11.80
2018-04-29T20:49:51.498Z,19.80
2018-04-29T20:52:19.024Z,17.98
2018-04-29T20:54:46.634Z,19.70
2018-04-29T20:57:14.197Z,17.25
2018-04-29T20:59:42.477Z,18.08
2018-04-29T21:02:10.024Z,17.52
2018-04-29T21:04:37.631Z,21.05
2018-04-29T21:07:05.218Z,19.55
2018-04-29T21:09:32.771Z,17.25
2018-04-29T21:12:00.349Z,19.02
2018-04-29T21:14:27.935Z,17.52
2018-04-29T21:16:56.350Z,16.42
2018-04-29T21:19:23.922Z,18.20
2018-04-29T21:21:51.475Z,16.92
2018-04-29T21:24:19.091Z,15.95
2018-04-29T21:26:46.622Z,19.45
2018-04-29T21:29:14.222Z,19.77
2018-04-29T21:31:41.833Z,18.40
2018-04-29T21:34:09.408Z,19.67
2018-04-29T21:36:37.025Z,19.75
2018-04-29T21:39:05.581Z,20.10
2018-04-29T21:41:33.127Z,18.50
2018-04-29T21:44:00.714Z,19.58
2018-04-29T21:46:28.269Z,20.45
2018-04-29T21:48:55.867Z,22.55
2018-04-29T21:51:24.214Z,24.58
2018-04-29T21:53:51.796Z,19.25
2018-04-29T21:56:19.391Z,20.05
2018-04-29T21:58:46.903Z,18.70
2018-04-29T22:01:14.445Z,19.58
2018-04-29T22:03:42.008Z,18.55
2018-04-29T22:06:09.559Z,20.40
2018-04-29T22:08:37.099Z,22.13
2018-04-29T22:11:04.650Z,20.50
2018-04-29T22:13:32.219Z,21.33
2018-04-29T22:15:59.770Z,20.75
2018-04-29T22:18:27.318Z,15.80
2018-04-29T22:20:55.650Z,17.45
2018-04-29T22:23:24.004Z,20.35
2018-04-29T22:25:51.549Z,16.65
2018-04-29T22:28:19.100Z,17.30
2018-04-29T22:30:46.651Z,17.92
2018-04-29T22:33:14.206Z,21.08
2018-04-29T22:35:41.750Z,20.15
2018-04-29T22:38:10.106Z,18.87
2018-04-29T22:40:37.675Z,19.12
2018-04-29T22:43:05.224Z,19.52
2018-04-29T22:45:32.763Z,19.08
2018-04-29T22:48:00.313Z,17.77
2018-04-29T22:50:27.859Z,18.95
2018-04-29T22:52:56.163Z,21.00
2018-04-29T22:55:23.690Z,20.08
2018-04-29T22:57:51.999Z,21.27
